Bookmark and Share
Track history (hours):
 

Jomi

Last reported at 2014-Apr-17 12:33 UTC. Time now 2014-Apr-17 12:41 UTC.
Position N 57°42' E 010°59'.

Length 88 m; draft 6 m.

Type: Cargo ship. MMSI: 309701000.

NotesDate/timePositionNaut miles runAvg speedWind from/ knotsBaromVisibWave heightAir tempDewpointWater temp
2014-Apr-17 12:33N 57°42' E 010°59'9 9.0
2014-Apr-17 11:33N 57°36' E 011°12'9 8.8
2014-Apr-17 10:33N 57°30' E 011°24'9 8.7
2014-Apr-17 09:33N 57°22' E 011°31'9 9.3
2014-Apr-17 08:33N 57°13' E 011°36'10 9.3
2014-Apr-17 07:26N 57°03' E 011°43'9 9.6
2014-Apr-17 06:33N 56°55' E 011°47'9 9.6
2014-Apr-17 05:33N 56°46' E 011°53'1310.0
2014-Apr-17 04:15N 56°34' E 011°42'8 9.9
2014-Apr-17 03:28N 56°28' E 011°35'  
2014-Apr-13 20:33N 57°18' E 011°37'9 9.5
2014-Apr-13 19:33N 57°28' E 011°37'9 9.1
2014-Apr-13 18:33N 57°37' E 011°40'4 3.9
2014-Apr-13 17:33N 57°41' E 011°41'0 0.1
2014-Apr-13 16:33N 57°40' E 011°41'7 7.0
2014-Apr-13 15:33N 57°37' E 011°30'1010.1
2014-Apr-13 14:33N 57°40' E 011°12'1110.7
2014-Apr-13 13:33N 57°44' E 010°54'1111.3
2014-Apr-13 12:33N 57°47' E 010°33'1110.8
2014-Apr-13 11:32N 57°47' E 010°12'122 9.8
2014-Apr-12 23:06N 58°06' E 006°25'5 9.0
2014-Apr-12 22:33N 58°09' E 006°18'9 9.3
2014-Apr-12 21:33N 58°15' E 006°05'9 9.2
2014-Apr-12 20:33N 58°21' E 005°52'9 9.5
2014-Apr-12 19:33N 58°28' E 005°39'19 9.1
2014-Apr-12 17:30N 58°42' E 005°16'9 9.0
2014-Apr-12 16:33N 58°49' E 005°06'16 8.1
2014-Apr-12 14:31N 59°04' E 004°52'  

Dump ship's entire track history

sailing weather and tide predictions

Jomi — C6VK4 — position and weather